Time;durP1;ratioP1;P1;durP2;ratioP2;P2;SDS_P1;SDS_P2;PMS_P1;PMS_P2;Temp;Humidity;BMP_temperature;BMP_pressure;BME280_temperature;BME280_humidity;BME280_pressure;Samples;Min_cycle;Max_cycle;Signal;HPM_P1;HPM_P2
2022/01/07 00:00:30;;;;;;;3.50;1.65;;;;;;;3.11;75.24;101091.41;5064133;28;20055;-84
2022/01/07 00:03:01;;;;;;;0.77;0.77;;;;;;;3.16;75.36;101083.66;5069130;28;20052;-84
2022/01/07 00:05:32;;;;;;;0.38;0.38;;;;;;;3.18;75.73;101092.31;5065230;28;20160;-84
2022/01/07 00:08:03;;;;;;;2.22;0.98;;;;;;;3.18;75.19;101078.50;5058171;28;20036;-84
2022/01/07 00:10:34;;;;;;;1.95;1.60;;;;;;;3.15;74.56;101088.00;5078311;28;20073;-84
2022/01/07 00:13:05;;;;;;;0.65;0.65;;;;;;;3.28;75.44;101075.13;5060603;29;20037;-83
2022/01/07 00:15:36;;;;;;;0.90;0.90;;;;;;;3.23;75.38;101075.06;5087745;28;20050;-83
2022/01/07 00:18:07;;;;;;;1.52;1.42;;;;;;;3.35;75.24;101074.31;5068291;28;20036;-83
2022/01/07 00:20:48;;;;;;;1.00;1.00;;;;;;;3.28;75.65;101070.81;5071681;28;20040;-83
2022/01/07 00:23:18;;;;;;;0.50;0.50;;;;;;;3.36;75.10;101070.88;5077304;28;20084;-83
2022/01/07 00:25:57;;;;;;;;;;;;;;;3.37;74.79;101064.81;5097779;28;20038;-83
2022/01/07 00:28:28;;;;;;;0.82;0.82;;;;;;;3.29;75.36;101059.59;5090458;28;19970;-83
2022/01/07 00:30:59;;;;;;;0.40;0.40;;;;;;;3.29;74.42;101051.81;5093982;28;20037;-83
2022/01/07 00:33:29;;;;;;;0.43;0.43;;;;;;;3.24;75.24;101056.06;5074400;28;20673;-85
2022/01/07 00:36:00;;;;;;;1.95;1.25;;;;;;;3.28;74.67;101044.00;5077664;28;20306;-83
2022/01/07 00:38:34;;;;;;;0.50;0.50;;;;;;;3.36;75.19;101039.75;5058890;28;20122;-83
2022/01/07 00:41:05;;;;;;;0.57;0.57;;;;;;;3.31;74.20;101037.09;5055592;28;20049;-83
2022/01/07 00:43:35;;;;;;;0.43;0.43;;;;;;;3.27;75.20;101030.19;5072364;28;20040;-83
2022/01/07 00:46:06;;;;;;;0.70;0.70;;;;;;;3.36;75.13;101029.38;5083502;28;20037;-83
2022/01/07 00:48:45;;;;;;;3.03;1.27;;;;;;;3.38;75.38;101026.81;5069566;28;20027;-83
2022/01/07 00:51:16;;;;;;;0.30;0.30;;;;;;;3.24;74.96;101029.28;5070278;28;20045;-83
2022/01/07 00:53:47;;;;;;;0.88;0.88;;;;;;;3.30;74.97;101022.44;5086744;28;20514;-82
2022/01/07 00:56:21;;;;;;;1.08;1.08;;;;;;;3.22;74.95;101025.81;5074392;28;20101;-82
2022/01/07 00:58:54;;;;;;;;;;;;;;;3.23;74.77;101009.38;5092653;28;20029;-82
2022/01/07 01:01:25;;;;;;;0.50;0.50;;;;;;;3.32;74.94;101004.28;5061494;28;19965;-83
2022/01/07 01:03:55;;;;;;;1.05;1.05;;;;;;;3.31;74.53;101002.53;5073551;28;20060;-83
2022/01/07 01:06:29;;;;;;;0.80;0.80;;;;;;;3.32;74.99;100999.09;5081235;28;20041;-81
2022/01/07 01:09:00;;;;;;;1.23;0.68;;;;;;;3.20;74.15;101001.56;5057894;28;20532;-81
2022/01/07 01:11:30;;;;;;;0.60;0.60;;;;;;;3.24;74.27;101000.75;5057490;28;20060;-82
2022/01/07 01:14:01;;;;;;;0.93;0.93;;;;;;;3.15;73.75;100996.34;5047601;29;20087;-82
2022/01/07 01:16:32;;;;;;;0.60;0.60;;;;;;;3.29;73.84;100997.34;5103632;28;20590;-83
2022/01/07 01:19:07;;;;;;;0.80;0.80;;;;;;;3.30;74.62;100993.00;5094049;28;20016;-82
2022/01/07 01:21:38;;;;;;;0.70;0.70;;;;;;;3.32;74.69;100991.31;5056782;28;20046;-82
2022/01/07 01:24:09;;;;;;;0.70;0.70;;;;;;;3.24;74.34;100988.63;5066104;28;20032;-82
2022/01/07 01:26:40;;;;;;;0.50;0.50;;;;;;;3.24;73.95;100982.59;5067271;29;20056;-82
2022/01/07 01:29:10;;;;;;;0.50;0.50;;;;;;;3.42;74.66;100982.75;5082529;28;20566;-81
2022/01/07 01:31:44;;;;;;;0.40;0.40;;;;;;;3.46;74.74;100981.03;5061345;28;20038;-82
2022/01/07 01:34:15;;;;;;;0.57;0.57;;;;;;;3.44;74.77;100975.81;5033887;28;20729;-81
2022/01/07 01:36:45;;;;;;;0.68;0.68;;;;;;;3.29;74.26;100965.34;5076868;28;20051;-81
2022/01/07 01:39:16;;;;;;;10.48;1.40;;;;;;;3.31;74.73;100963.63;5049239;28;20109;-81
2022/01/07 01:41:47;;;;;;;1.05;1.05;;;;;;;3.32;74.25;100965.38;5058045;28;20031;-81
2022/01/07 01:44:17;;;;;;;1.25;1.15;;;;;;;3.28;74.77;100964.47;5071734;28;20020;-82
2022/01/07 01:46:48;;;;;;;1.08;1.08;;;;;;;3.22;74.19;100967.03;5094228;28;20122;-81
2022/01/07 01:49:19;;;;;;;0.50;0.50;;;;;;;3.22;73.93;100968.75;5083721;28;20225;-82
2022/01/07 01:51:49;;;;;;;8.02;1.60;;;;;;;3.33;75.20;100967.09;5077897;28;20031;-81
2022/01/07 01:54:20;;;;;;;0.40;0.40;;;;;;;3.35;75.45;100967.97;5066618;28;20103;-81
2022/01/07 01:56:51;;;;;;;1.08;1.08;;;;;;;3.43;75.70;100957.66;5068855;28;20339;-82
2022/01/07 01:59:27;;;;;;;0.88;0.88;;;;;;;3.40;75.16;100958.50;5073506;28;20501;-82
2022/01/07 02:01:59;;;;;;;0.50;0.50;;;;;;;3.38;75.09;100947.25;5071004;28;20032;-81
2022/01/07 02:04:30;;;;;;;0.90;0.90;;;;;;;3.41;75.25;100955.06;5072319;28;20131;-82
2022/01/07 02:07:00;;;;;;;2.35;2.22;;;;;;;3.44;75.72;100949.88;5093889;28;20101;-82
2022/01/07 02:09:35;;;;;;;0.70;0.70;;;;;;;3.50;75.43;100951.63;5098820;28;20056;-82
2022/01/07 02:12:11;;;;;;;0.60;0.60;;;;;;;3.56;76.10;100946.47;5076101;28;20036;-81
2022/01/07 02:14:53;;;;;;;1.42;1.15;;;;;;;3.44;75.57;100936.91;5060728;28;20037;-81
2022/01/07 02:17:26;;;;;;;0.57;0.57;;;;;;;3.32;74.21;100929.06;5074102;28;20091;-81
2022/01/07 02:20:00;;;;;;;0.60;0.60;;;;;;;3.26;75.25;100926.44;5054205;28;20044;-82
2022/01/07 02:22:31;;;;;;;0.50;0.50;;;;;;;3.46;75.27;100926.56;5076946;28;20320;-81
2022/01/07 02:25:05;;;;;;;0.43;0.43;;;;;;;3.35;74.89;100923.88;5085521;28;20553;-82
2022/01/07 02:27:38;;;;;;;1.13;1.13;;;;;;;3.37;74.38;100929.94;5094137;28;20042;-83
2022/01/07 02:30:12;;;;;;;0.50;0.50;;;;;;;3.32;73.63;100916.09;5089853;28;20044;-81
2022/01/07 02:32:44;;;;;;;3.60;1.92;;;;;;;3.29;74.51;100913.47;5087646;28;20031;-81
2022/01/07 02:35:17;;;;;;;0.60;0.60;;;;;;;3.22;73.38;100899.63;5048972;28;20044;-82
2022/01/07 02:37:51;;;;;;;0.45;0.45;;;;;;;3.06;74.23;100901.22;5104406;28;20023;-81
2022/01/07 02:40:22;;;;;;;0.43;0.43;;;;;;;3.02;74.21;100889.09;5055647;28;20060;-82
2022/01/07 02:42:53;;;;;;;0.70;0.70;;;;;;;3.04;74.71;100887.38;5058333;28;20048;-82
2022/01/07 02:45:27;;;;;;;0.80;0.80;;;;;;;3.12;74.59;100880.53;5072558;28;20041;-82
2022/01/07 02:48:04;;;;;;;0.50;0.50;;;;;;;3.13;75.31;100871.03;5072589;28;20044;-81
2022/01/07 02:50:37;;;;;;;1.17;1.15;;;;;;;3.12;74.78;100869.28;5076128;28;20046;-82
2022/01/07 02:53:09;;;;;;;0.63;0.63;;;;;;;3.07;75.02;100856.31;5089190;28;20421;-82
2022/01/07 02:55:41;;;;;;;0.40;0.40;;;;;;;3.10;73.87;100848.53;5073850;28;20346;-81
2022/01/07 02:58:11;;;;;;;0.55;0.55;;;;;;;3.08;73.63;100847.66;5079064;28;20116;-82
2022/01/07 03:00:42;;;;;;;0.50;0.50;;;;;;;3.15;74.42;100831.28;5098124;28;20134;-82
2022/01/07 03:03:15;;;;;;;0.50;0.50;;;;;;;3.04;74.76;100819.97;5088076;28;20025;-81
2022/01/07 03:05:46;;;;;;;0.65;0.65;;;;;;;3.09;74.42;100820.88;5075683;28;20038;-80
2022/01/07 03:08:16;;;;;;;0.40;0.40;;;;;;;3.20;74.81;100826.13;5087675;28;20409;-81
2022/01/07 03:10:47;;;;;;;0.50;0.50;;;;;;;3.11;73.54;100816.56;5073142;28;20043;-82
2022/01/07 03:13:17;;;;;;;0.50;0.50;;;;;;;3.21;74.51;100806.22;5054399;28;20040;-82
2022/01/07 03:15:48;;;;;;;0.50;0.50;;;;;;;3.10;74.59;100812.22;5051223;28;20085;-82
2022/01/07 03:18:18;;;;;;;0.40;0.40;;;;;;;3.11;74.58;100801.00;5069633;28;20033;-82
2022/01/07 03:20:49;;;;;;;0.75;0.75;;;;;;;3.21;73.47;100796.75;5074132;28;20053;-82
2022/01/07 03:23:19;;;;;;;0.35;0.35;;;;;;;3.22;72.92;100789.81;5058174;28;20280;-82
2022/01/07 03:25:50;;;;;;;0.45;0.45;;;;;;;3.29;74.46;100786.38;5078565;28;20045;-82
2022/01/07 03:28:21;;;;;;;0.60;0.60;;;;;;;3.28;72.89;100787.25;5091733;28;20104;-82
2022/01/07 03:30:54;;;;;;;0.40;0.40;;;;;;;3.27;73.84;100780.31;5058831;28;20037;-82
2022/01/07 03:33:25;;;;;;;0.50;0.50;;;;;;;3.25;73.91;100776.88;5074645;28;20035;-82
2022/01/07 03:35:55;;;;;;;0.75;0.75;;;;;;;3.28;73.67;100758.72;5077264;28;20112;-82
2022/01/07 03:38:26;;;;;;;0.52;0.52;;;;;;;3.28;72.99;100756.13;5091089;28;20126;-82
2022/01/07 03:40:57;;;;;;;0.50;0.50;;;;;;;3.21;72.81;100749.19;5059326;28;20040;-82
2022/01/07 03:43:27;;;;;;;0.50;0.50;;;;;;;3.23;72.02;100755.25;5074819;28;20032;-82
2022/01/07 03:45:58;;;;;;;0.40;0.40;;;;;;;3.19;72.83;100756.09;5092931;28;20109;-83
2022/01/07 03:48:29;;;;;;;0.45;0.45;;;;;;;3.23;72.64;100768.22;5081992;28;20033;-82
2022/01/07 03:51:00;;;;;;;0.77;0.77;;;;;;;3.30;72.11;100767.38;5065058;28;20040;-82
2022/01/07 03:53:30;;;;;;;0.50;0.50;;;;;;;3.34;72.47;100763.94;5083438;28;20527;-82
2022/01/07 03:56:01;;;;;;;1.08;1.08;;;;;;;3.27;71.67;100764.75;5082321;28;20048;-82
2022/01/07 03:58:32;;;;;;;0.50;0.50;;;;;;;3.32;72.83;100757.88;5073058;28;20040;-82
2022/01/07 04:01:05;;;;;;;0.50;0.50;;;;;;;3.19;70.85;100762.16;5072422;28;20051;-82
2022/01/07 04:03:36;;;;;;;0.43;0.43;;;;;;;3.22;72.14;100751.81;5109347;28;20025;-81
2022/01/07 04:06:06;;;;;;;0.40;0.40;;;;;;;3.24;72.11;100749.22;5074356;28;20025;-82
2022/01/07 04:08:37;;;;;;;0.50;0.50;;;;;;;3.26;72.17;100742.31;5099731;28;20127;-83
2022/01/07 04:11:08;;;;;;;0.50;0.50;;;;;;;3.35;73.31;100736.28;5096481;28;20048;-82
2022/01/07 04:13:38;;;;;;;0.60;0.60;;;;;;;3.31;72.06;100731.06;5073515;28;20039;-82
2022/01/07 04:16:12;;;;;;;0.30;0.30;;;;;;;3.35;72.86;100734.53;5096514;28;20072;-82
2022/01/07 04:18:43;;;;;;;0.45;0.45;;;;;;;3.30;71.65;100728.47;5107950;28;20034;-82
2022/01/07 04:21:14;;;;;;;1.27;1.27;;;;;;;3.32;72.50;100731.94;5080599;28;20040;-83
2022/01/07 04:23:44;;;;;;;1.02;1.02;;;;;;;3.31;71.51;100725.03;5067845;28;20159;-82
2022/01/07 04:26:14;;;;;;;0.60;0.60;;;;;;;3.29;71.69;100724.16;5085288;28;20037;-82
2022/01/07 04:28:45;;;;;;;0.45;0.45;;;;;;;3.31;71.42;100719.84;5105345;28;20490;-82
2022/01/07 04:31:15;;;;;;;0.50;0.50;;;;;;;3.36;71.23;100717.25;5080168;28;20044;-83
2022/01/07 04:33:46;;;;;;;0.30;0.30;;;;;;;3.33;71.81;100723.31;5053552;28;20035;-82
2022/01/07 04:36:17;;;;;;;0.40;0.40;;;;;;;3.25;70.28;100715.50;5079938;28;20594;-82
2022/01/07 04:38:51;;;;;;;0.93;0.93;;;;;;;3.28;71.12;100717.22;5079529;28;20034;-82
2022/01/07 04:41:24;;;;;;;0.57;0.57;;;;;;;3.24;71.27;100718.94;5089717;28;20548;-82
2022/01/07 04:43:55;;;;;;;0.40;0.40;;;;;;;3.31;71.74;100722.44;5055337;28;20032;-83
2022/01/07 04:46:25;;;;;;;0.40;0.40;;;;;;;3.30;71.72;100718.09;5040107;28;20064;-82
2022/01/07 04:48:56;;;;;;;0.40;0.40;;;;;;;3.27;72.89;100720.69;5082379;28;20034;-82
2022/01/07 04:51:29;;;;;;;0.63;0.63;;;;;;;3.28;73.46;100725.00;5109777;28;20118;-82
2022/01/07 04:54:00;;;;;;;0.98;0.98;;;;;;;3.29;73.04;100724.16;5062790;28;20037;-80
2022/01/07 04:56:30;;;;;;;0.95;0.95;;;;;;;3.28;73.33;100722.41;5098061;28;20033;-81
2022/01/07 04:59:01;;;;;;;0.82;0.82;;;;;;;3.30;74.25;100720.69;5085432;28;20044;-81
2022/01/07 05:01:31;;;;;;;0.30;0.30;;;;;;;3.28;74.94;100719.81;5096385;28;20041;-81
2022/01/07 05:04:02;;;;;;;0.45;0.45;;;;;;;3.31;75.45;100719.84;5059227;29;20035;-80
2022/01/07 05:06:45;;;;;;;0.40;0.40;;;;;;;3.31;75.69;100718.09;5146885;28;20781;-82
2022/01/07 05:09:17;;;;;;;0.40;0.40;;;;;;;3.29;76.54;100718.97;5080636;28;20115;-82
2022/01/07 05:11:50;;;;;;;16.35;1.25;;;;;;;3.22;76.45;100717.22;5076620;28;20027;-82
2022/01/07 05:14:21;;;;;;;0.30;0.30;;;;;;;3.12;77.83;100712.00;5077170;28;20091;-82
2022/01/07 05:16:51;;;;;;;0.77;0.77;;;;;;;3.22;77.92;100712.91;5066362;28;20438;-81
2022/01/07 05:19:22;;;;;;;1.77;1.67;;;;;;;3.20;78.45;100713.75;5081878;28;20041;-81
2022/01/07 05:21:55;;;;;;;0.85;0.85;;;;;;;3.12;79.10;100704.22;5059354;28;20025;-82
2022/01/07 05:24:25;;;;;;;0.63;0.63;;;;;;;3.09;79.46;100708.53;5078423;28;20036;-81
2022/01/07 05:26:56;;;;;;;0.30;0.30;;;;;;;3.17;79.30;100705.97;5079053;28;20025;-81
2022/01/07 05:29:28;;;;;;;0.40;0.40;;;;;;;3.23;78.36;100704.25;5087626;28;20682;-80
2022/01/07 05:31:59;;;;;;;0.50;0.50;;;;;;;3.21;79.24;100710.28;5036336;28;20017;-81
2022/01/07 05:34:29;;;;;;;0.40;0.40;;;;;;;3.07;79.72;100705.94;5099943;28;20112;-80
2022/01/07 05:37:00;;;;;;;0.50;0.50;;;;;;;3.15;79.27;100717.19;5081743;28;20037;-80
2022/01/07 05:39:31;;;;;;;0.50;0.50;;;;;;;2.96;80.51;100699.84;5081201;28;20049;-77
2022/01/07 05:42:02;;;;;;;0.65;0.65;;;;;;;3.02;80.96;100697.25;5090797;28;20083;-77
2022/01/07 05:44:33;;;;;;;0.65;0.65;;;;;;;2.96;80.97;100695.53;5093833;28;20048;-77
2022/01/07 05:47:04;;;;;;;0.40;0.40;;;;;;;3.01;81.42;100687.78;5072243;28;20075;-78
2022/01/07 05:49:34;;;;;;;0.50;0.50;;;;;;;3.03;81.44;100688.63;5107361;28;20423;-78
2022/01/07 05:52:05;;;;;;;0.40;0.40;;;;;;;3.03;82.20;100682.59;5069977;28;20087;-77
2022/01/07 05:54:35;;;;;;;0.40;0.40;;;;;;;3.12;81.25;100682.63;5072496;28;20497;-77
2022/01/07 05:57:08;;;;;;;0.52;0.52;;;;;;;3.09;81.65;100677.41;5076043;28;20031;-78
2022/01/07 05:59:39;;;;;;;0.50;0.50;;;;;;;3.14;81.33;100671.38;5097512;28;20118;-78
2022/01/07 06:02:12;;;;;;;0.65;0.65;;;;;;;3.32;80.45;100672.31;5064509;28;20119;-79
2022/01/07 06:04:42;;;;;;;0.73;0.70;;;;;;;3.24;80.30;100677.44;5080132;28;20043;-78
2022/01/07 06:07:13;;;;;;;0.50;0.50;;;;;;;3.08;81.37;100684.34;5072029;28;20040;-78
2022/01/07 06:09:44;;;;;;;0.55;0.55;;;;;;;3.05;81.56;100679.13;5085613;28;20045;-78
2022/01/07 06:12:14;;;;;;;0.60;0.60;;;;;;;3.12;81.70;100682.63;5081633;28;20577;-78
2022/01/07 06:14:45;;;;;;;0.50;0.50;;;;;;;3.08;81.75;100686.94;5079330;28;20057;-78
2022/01/07 06:17:16;;;;;;;0.47;0.47;;;;;;;3.08;81.75;100679.16;5076081;28;20036;-78
2022/01/07 06:19:46;;;;;;;0.47;0.47;;;;;;;3.09;81.42;100677.41;5090824;28;20054;-78
2022/01/07 06:22:17;;;;;;;0.40;0.40;;;;;;;3.02;82.29;100671.34;5076865;28;20457;-78
2022/01/07 06:24:48;;;;;;;0.40;0.40;;;;;;;2.97;82.33;100658.38;5052221;28;20039;-78
2022/01/07 06:27:18;;;;;;;0.45;0.45;;;;;;;3.05;82.25;100666.16;5095014;28;20111;-78
2022/01/07 06:29:49;;;;;;;0.40;0.40;;;;;;;2.99;82.07;100661.81;5093565;28;20038;-79
2022/01/07 06:32:23;;;;;;;0.40;0.40;;;;;;;2.96;82.63;100650.59;5054775;28;20029;-79
2022/01/07 06:34:53;;;;;;;1.33;1.23;;;;;;;2.98;82.89;100656.66;5062855;28;20130;-79
2022/01/07 06:37:24;;;;;;;0.30;0.30;;;;;;;2.97;82.65;100654.91;5073579;28;20435;-79
2022/01/07 06:39:55;;;;;;;0.40;0.40;;;;;;;2.97;82.39;100663.56;5055019;28;20053;-78
2022/01/07 06:42:26;;;;;;;0.57;0.57;;;;;;;2.90;83.45;100666.97;5064048;28;20393;-77
2022/01/07 06:44:57;;;;;;;1.02;1.02;;;;;;;2.89;83.72;100669.56;5084190;28;20043;-78
2022/01/07 06:47:28;;;;;;;0.40;0.40;;;;;;;2.87;83.86;100659.22;5077367;28;20033;-78
2022/01/07 06:49:58;;;;;;;0.63;0.63;;;;;;;2.97;83.27;100652.31;5083771;28;20060;-78
2022/01/07 06:52:29;;;;;;;0.50;0.50;;;;;;;2.95;83.34;100659.22;5089328;28;20047;-78
2022/01/07 06:55:00;;;;;;;0.40;0.40;;;;;;;2.94;83.69;100642.81;5087611;28;20049;-78
2022/01/07 06:57:30;;;;;;;0.40;0.40;;;;;;;2.93;83.63;100650.59;5074838;28;20048;-78
2022/01/07 07:00:02;;;;;;;0.50;0.50;;;;;;;2.96;83.21;100645.41;5087634;28;20033;-79
2022/01/07 07:02:35;;;;;;;0.40;0.40;;;;;;;2.98;83.57;100647.13;5072558;28;20087;-79
2022/01/07 07:05:06;;;;;;;0.98;0.98;;;;;;;2.93;83.89;100641.09;5088074;28;20135;-79
2022/01/07 07:07:43;;;;;;;0.60;0.60;;;;;;;2.98;83.35;100654.91;5078844;28;20110;-79
2022/01/07 07:10:14;;;;;;;0.40;0.40;;;;;;;3.00;83.87;100654.94;5067916;28;20048;-78
2022/01/07 07:12:44;;;;;;;0.40;0.40;;;;;;;2.97;83.79;100650.63;5042560;28;20091;-78
2022/01/07 07:15:18;;;;;;;0.40;0.40;;;;;;;2.97;83.36;100653.22;5087453;28;20084;-79
2022/01/07 07:17:48;;;;;;;0.85;0.85;;;;;;;3.03;83.28;100657.53;5091844;28;20048;-79
2022/01/07 07:20:19;;;;;;;0.45;0.45;;;;;;;3.02;83.22;100655.78;5047259;28;20237;-78
2022/01/07 07:22:49;;;;;;;0.70;0.70;;;;;;;3.01;83.75;100658.38;5069023;28;20067;-78
2022/01/07 07:25:22;;;;;;;0.40;0.40;;;;;;;2.98;83.40;100664.44;5062560;28;20055;-78
2022/01/07 07:27:56;;;;;;;0.40;0.40;;;;;;;2.98;83.45;100667.88;5071847;28;20044;-79
2022/01/07 07:30:34;;;;;;;0.80;0.70;;;;;;;3.00;83.46;100660.13;5072666;28;20135;-78
2022/01/07 07:38:47;;;;;;;0.47;0.47;;;;;;;2.99;83.30;100660.97;5044331;28;20111;-77
2022/01/07 07:41:28;;;;;;;0.40;0.40;;;;;;;3.02;83.30;100662.72;5076257;28;20052;-77
2022/01/07 07:44:08;;;;;;;0.40;0.40;;;;;;;3.03;83.11;100673.06;5062894;28;20502;-78
2022/01/07 07:46:40;;;;;;;0.40;0.40;;;;;;;3.08;83.16;100670.50;5074372;28;20450;-78
2022/01/07 07:49:10;;;;;;;0.40;0.40;;;;;;;3.04;82.95;100664.44;5065707;28;20051;-78
2022/01/07 07:51:41;;;;;;;0.75;0.75;;;;;;;3.06;83.18;100667.91;5064184;28;20025;-78
2022/01/07 07:54:14;;;;;;;0.50;0.50;;;;;;;3.05;83.53;100671.34;5053071;28;20496;-78
2022/01/07 07:56:45;;;;;;;;;;;;;;;3.08;83.27;100671.38;5072231;28;20091;-78
2022/01/07 07:59:16;;;;;;;0.35;0.35;;;;;;;3.13;83.16;100674.84;5075696;28;20287;-79
2022/01/07 08:01:46;;;;;;;0.60;0.60;;;;;;;3.13;82.62;100676.59;5087156;28;20033;-77
2022/01/07 08:04:19;;;;;;;0.50;0.50;;;;;;;3.12;83.09;100678.28;5054158;28;20124;-79
2022/01/07 08:06:50;;;;;;;1.25;1.15;;;;;;;3.15;82.72;100675.72;5082174;28;20036;-78
2022/01/07 08:09:20;;;;;;;0.40;0.40;;;;;;;3.15;82.82;100678.31;5066067;28;20429;-79
2022/01/07 08:11:53;;;;;;;0.47;0.47;;;;;;;3.11;83.15;100675.69;5064973;28;20033;-79
2022/01/07 08:17:21;;;;;;;1.10;1.10;;;;;;;3.20;82.91;100673.13;5112076;28;20452;-78
2022/01/07 08:19:52;;;;;;;0.40;0.40;;;;;;;3.22;82.70;100670.53;5063390;28;20052;-78
2022/01/07 08:22:22;;;;;;;0.40;0.40;;;;;;;3.20;82.57;100664.47;5071922;28;20104;-80
2022/01/07 08:24:53;;;;;;;0.57;0.57;;;;;;;3.20;82.45;100672.25;5075643;28;20080;-79
2022/01/07 08:27:23;;;;;;;0.40;0.40;;;;;;;3.20;82.52;100664.47;5066899;28;20033;-79
2022/01/07 08:29:54;;;;;;;0.68;0.68;;;;;;;3.21;82.94;100671.41;5075720;28;20059;-79
2022/01/07 08:35:13;;;;;;;0.50;0.50;;;;;;;3.24;82.45;100671.41;5083683;28;20471;-80
2022/01/07 08:37:44;;;;;;;0.75;0.75;;;;;;;3.26;82.95;100672.28;5057067;28;20128;-78
2022/01/07 08:40:16;;;;;;;0.40;0.40;;;;;;;3.24;82.84;100663.63;5041388;28;20075;-78
2022/01/07 08:42:47;;;;;;;0.40;0.40;;;;;;;3.27;82.66;100661.03;5069797;28;20037;-78
2022/01/07 08:45:17;;;;;;;0.40;0.40;;;;;;;3.27;82.62;100648.06;5063798;28;20044;-78
2022/01/07 08:47:47;;;;;;;0.60;0.60;;;;;;;3.30;82.33;100656.75;5059683;28;20126;-77
2022/01/07 08:50:20;;;;;;;0.52;0.52;;;;;;;3.28;82.82;100650.69;5076442;28;20547;-78
2022/01/07 08:52:52;;;;;;;0.40;0.40;;;;;;;3.28;82.28;100642.03;5066626;28;20136;-78
2022/01/07 08:55:23;;;;;;;0.55;0.55;;;;;;;3.29;81.85;100641.16;5076950;28;20290;-78
2022/01/07 08:57:53;;;;;;;0.50;0.50;;;;;;;3.32;82.40;100638.59;5066597;28;20035;-78
2022/01/07 09:00:24;;;;;;;0.40;0.40;;;;;;;3.31;82.00;100631.66;5079559;28;20052;-78
2022/01/07 09:02:54;;;;;;;0.43;0.43;;;;;;;3.29;82.33;100623.88;5084146;28;20578;-78
2022/01/07 09:05:25;;;;;;;0.80;0.52;;;;;;;3.39;82.05;100626.50;5053433;28;20817;-79
2022/01/07 09:07:56;;;;;;;0.40;0.40;;;;;;;3.35;82.17;100630.78;5072841;28;20050;-79
2022/01/07 09:10:26;;;;;;;0.40;0.40;;;;;;;3.40;81.62;100626.50;5039802;28;20049;-78
2022/01/07 09:12:57;;;;;;;0.63;0.63;;;;;;;3.40;81.56;100628.19;5034275;29;20052;-78
2022/01/07 09:15:27;;;;;;;0.30;0.30;;;;;;;3.46;81.60;100630.81;5083993;28;20116;-78
2022/01/07 09:17:58;;;;;;;1.05;1.05;;;;;;;3.41;81.92;100642.91;5064521;28;20115;-79
2022/01/07 09:20:28;;;;;;;1.17;1.13;;;;;;;3.34;81.92;100642.06;5053359;28;20045;-79
2022/01/07 09:22:59;;;;;;;1.02;1.02;;;;;;;3.36;81.95;100639.44;5037754;29;20032;-79
2022/01/07 09:25:29;;;;;;;0.40;0.40;;;;;;;3.35;81.86;100632.53;5077070;28;20048;-79
2022/01/07 09:28:00;;;;;;;0.40;0.40;;;;;;;3.36;82.13;100639.44;5078613;28;20107;-79
2022/01/07 09:30:32;;;;;;;0.35;0.35;;;;;;;3.34;81.21;100625.59;5072670;28;20059;-79
2022/01/07 09:33:04;;;;;;;0.40;0.40;;;;;;;3.42;81.91;100631.66;5088977;28;20127;-79
2022/01/07 09:35:34;;;;;;;0.38;0.38;;;;;;;3.37;81.65;100629.06;5064444;28;20421;-79
2022/01/07 09:38:05;;;;;;;0.50;0.50;;;;;;;3.41;81.91;100630.81;5065807;28;20048;-79
2022/01/07 09:40:35;;;;;;;0.43;0.43;;;;;;;3.40;81.66;100636.88;5057090;28;20522;-78
2022/01/07 09:43:08;;;;;;;0.30;0.30;;;;;;;3.42;81.94;100640.34;5029812;29;20033;-78
2022/01/07 09:45:39;;;;;;;0.50;0.50;;;;;;;3.51;81.45;100641.19;5056730;28;20389;-79
2022/01/07 09:48:09;;;;;;;0.32;0.32;;;;;;;3.52;81.28;100636.00;5064939;28;20469;-78
2022/01/07 09:50:47;;;;;;;0.50;0.50;;;;;;;3.50;81.62;100642.06;5073562;28;20054;-78
2022/01/07 09:53:19;;;;;;;0.35;0.35;;;;;;;3.49;81.87;100636.00;5057876;28;20082;-77
2022/01/07 09:55:50;;;;;;;0.63;0.63;;;;;;;3.44;81.32;100633.41;5037180;28;20048;-79
2022/01/07 09:58:20;;;;;;;0.50;0.50;;;;;;;3.47;81.51;100636.00;5080590;28;20042;-79
2022/01/07 10:01:00;;;;;;;0.40;0.40;;;;;;;3.51;82.03;100639.47;5078062;28;20053;-80
2022/01/07 10:03:42;;;;;;;0.40;0.40;;;;;;;3.54;81.69;100638.59;5064195;28;20128;-79
2022/01/07 10:06:25;;;;;;;0.40;0.40;;;;;;;3.56;81.62;100634.28;5051930;28;20120;-79
2022/01/07 10:09:10;;;;;;;0.40;0.40;;;;;;;3.57;81.62;100639.47;5047176;28;20032;-79
2022/01/07 10:11:40;;;;;;;0.88;0.88;;;;;;;3.62;81.73;100636.88;5078437;28;20125;-79
2022/01/07 10:14:22;;;;;;;0.30;0.30;;;;;;;3.60;81.77;100638.59;5038591;28;20108;-81
2022/01/07 10:16:55;;;;;;;0.40;0.40;;;;;;;3.68;81.19;100636.84;5067096;28;20229;-79
2022/01/07 10:19:43;;;;;;;0.32;0.32;;;;;;;3.69;81.34;100638.59;5095555;28;20040;-80
2022/01/07 10:22:15;;;;;;;0.40;0.40;;;;;;;3.68;81.92;100634.25;5067161;28;20094;-79
2022/01/07 10:24:54;;;;;;;0.40;0.40;;;;;;;3.72;82.07;100630.81;5077420;28;20060;-79
2022/01/07 10:27:33;;;;;;;0.40;0.40;;;;;;;3.74;81.31;100636.88;5051605;29;20029;-79
2022/01/07 10:30:14;;;;;;;0.30;0.30;;;;;;;3.79;81.62;100629.09;5034264;28;20273;-79
2022/01/07 10:32:45;;;;;;;0.40;0.40;;;;;;;3.82;81.88;100628.22;5032189;28;20039;-79
2022/01/07 10:35:18;;;;;;;0.38;0.38;;;;;;;3.88;81.95;100633.41;5073574;28;20048;-79
2022/01/07 10:37:52;;;;;;;8.43;2.03;;;;;;;3.91;82.52;100638.59;5060538;28;20043;-79
2022/01/07 10:40:26;;;;;;;0.50;0.50;;;;;;;3.95;82.33;100635.13;5059944;28;20512;-79
2022/01/07 10:43:09;;;;;;;;;;;;;;;3.99;81.94;100636.88;5045801;29;20374;-79
2022/01/07 10:45:47;;;;;;;0.32;0.32;;;;;;;3.97;82.29;100623.00;5088378;28;19992;-79
2022/01/07 10:48:20;;;;;;;0.52;0.52;;;;;;;3.95;81.23;100616.94;5089752;28;20493;-79
2022/01/07 10:50:52;;;;;;;0.40;0.40;;;;;;;3.98;81.39;100614.34;5048776;28;20056;-79
2022/01/07 10:53:28;;;;;;;0.40;0.40;;;;;;;4.01;81.12;100618.69;5045349;29;20431;-79
2022/01/07 10:56:11;;;;;;;0.80;0.80;;;;;;;3.99;81.17;100613.50;5069435;28;20280;-80
2022/01/07 10:58:45;;;;;;;0.55;0.55;;;;;;;3.99;81.07;100621.28;5036780;28;20033;-79
2022/01/07 11:01:18;;;;;;;0.50;0.50;;;;;;;4.00;80.86;100610.03;5066138;28;20045;-79
2022/01/07 11:03:54;;;;;;;0.60;0.60;;;;;;;4.04;80.11;100601.34;5049914;29;20493;-80
2022/01/07 11:06:26;;;;;;;0.60;0.60;;;;;;;4.09;81.21;100607.41;5083015;28;20067;-80
2022/01/07 11:09:01;;;;;;;0.57;0.57;;;;;;;4.10;80.70;100605.69;5069844;28;20037;-79
2022/01/07 11:11:32;;;;;;;0.40;0.40;;;;;;;4.09;80.40;100606.53;5064173;28;20048;-79
2022/01/07 11:14:12;;;;;;;0.40;0.40;;;;;;;4.14;80.94;100596.16;5035335;28;20025;-79
2022/01/07 11:16:43;;;;;;;1.75;1.50;;;;;;;4.15;79.88;100596.13;5051019;29;20107;-80
2022/01/07 11:19:18;;;;;;;0.40;0.40;;;;;;;4.17;79.82;100594.41;5067314;28;20037;-80
2022/01/07 11:21:55;;;;;;;0.30;0.30;;;;;;;4.20;80.28;100598.72;5097837;28;20435;-80
2022/01/07 11:24:43;;;;;;;0.40;0.40;;;;;;;4.20;80.16;100598.72;5050862;28;20056;-80
2022/01/07 11:27:15;;;;;;;0.65;0.65;;;;;;;4.25;80.70;100603.03;5053208;28;20025;-80
2022/01/07 11:30:08;;;;;;;0.73;0.73;;;;;;;4.25;79.95;100591.81;5069448;28;20074;-80
2022/01/07 11:32:48;;;;;;;0.50;0.50;;;;;;;4.23;80.54;100586.59;5087220;28;20037;-79
2022/01/07 11:35:26;;;;;;;0.40;0.40;;;;;;;4.28;80.96;100581.38;5047195;28;20068;-80
2022/01/07 11:38:03;;;;;;;0.52;0.52;;;;;;;4.27;80.08;100579.66;5067078;28;20040;-80
2022/01/07 11:40:39;;;;;;;0.40;0.40;;;;;;;4.30;80.53;100576.19;5057179;28;20059;-79
2022/01/07 11:43:13;;;;;;;0.70;0.70;;;;;;;4.32;79.71;100577.03;5030450;28;20489;-80
2022/01/07 11:45:44;;;;;;;;;;;;;;;4.31;80.70;100578.78;5052925;28;20925;-80
2022/01/07 11:48:26;;;;;;;0.30;0.30;;;;;;;4.32;80.34;100583.13;5056605;28;19920;-80
2022/01/07 11:51:00;;;;;;;0.60;0.60;;;;;;;4.34;80.80;100568.38;5053665;28;20045;-79
2022/01/07 11:53:40;;;;;;;0.40;0.40;;;;;;;4.36;80.97;100571.81;5053498;28;20033;-80
2022/01/07 11:56:16;;;;;;;0.40;0.40;;;;;;;4.38;80.39;100577.03;5061321;28;20049;-80
2022/01/07 11:58:51;;;;;;;0.45;0.45;;;;;;;4.42;80.68;100576.13;5057607;28;20440;-79
2022/01/07 12:01:37;;;;;;;0.40;0.40;;;;;;;4.40;80.65;100576.16;5039660;28;20607;-79
2022/01/07 12:04:14;;;;;;;0.85;0.85;;;;;;;4.43;80.83;100574.38;5074531;28;20045;-80
2022/01/07 12:06:46;;;;;;;0.55;0.55;;;;;;;4.44;80.68;100578.72;5084385;28;20507;-79
2022/01/07 12:09:21;;;;;;;0.73;0.73;;;;;;;4.45;80.15;100583.94;5053525;28;20040;-80